sensor_id;sensor_type;location;lat;lon;timestamp;pressure;altitude;pressure_sealevel;temperature;humidity
43488;BME280;29078;41.932;25.554;2022-11-04T00:01:45;99760.31;;;12.42;49.04
43488;BME280;29078;41.932;25.554;2022-11-04T00:04:12;99693.97;;;11.99;49.35
43488;BME280;29078;41.932;25.554;2022-11-04T00:06:38;99783.59;;;12.47;49.63
43488;BME280;29078;41.932;25.554;2022-11-04T00:09:05;99785.41;;;12.46;49.45
43488;BME280;29078;41.932;25.554;2022-11-04T00:11:30;99813.63;;;12.68;49.72
43488;BME280;29078;41.932;25.554;2022-11-04T00:14:14;99814.47;;;12.69;50.13
43488;BME280;29078;41.932;25.554;2022-11-04T00:16:40;99827.50;;;12.85;49.99
43488;BME280;29078;41.932;25.554;2022-11-04T00:19:25;99815.19;;;12.78;49.69
43488;BME280;29078;41.932;25.554;2022-11-04T00:21:51;99770.97;;;12.49;49.32
43488;BME280;29078;41.932;25.554;2022-11-04T00:24:34;99809.34;;;12.67;49.50
43488;BME280;29078;41.932;25.554;2022-11-04T00:27:14;99861.69;;;13.16;49.32
43488;BME280;29078;41.932;25.554;2022-11-04T00:29:58;99783.13;;;12.72;49.67
43488;BME280;29078;41.932;25.554;2022-11-04T00:32:24;99784.69;;;12.67;49.71
43488;BME280;29078;41.932;25.554;2022-11-04T00:35:10;99852.03;;;13.23;49.23
43488;BME280;29078;41.932;25.554;2022-11-04T00:37:39;99775.53;;;12.55;49.54
43488;BME280;29078;41.932;25.554;2022-11-04T00:40:06;99807.00;;;12.94;49.44
43488;BME280;29078;41.932;25.554;2022-11-04T00:42:32;99786.84;;;12.78;49.58
43488;BME280;29078;41.932;25.554;2022-11-04T00:44:57;99784.75;;;12.73;49.38
43488;BME280;29078;41.932;25.554;2022-11-04T00:47:23;99857.25;;;13.17;49.71
43488;BME280;29078;41.932;25.554;2022-11-04T00:49:48;99756.19;;;12.54;49.86
43488;BME280;29078;41.932;25.554;2022-11-04T00:52:14;99729.81;;;12.31;49.54
43488;BME280;29078;41.932;25.554;2022-11-04T00:54:39;99736.84;;;12.39;49.47
43488;BME280;29078;41.932;25.554;2022-11-04T00:57:08;99795.72;;;12.56;49.77
43488;BME280;29078;41.932;25.554;2022-11-04T00:59:34;99693.63;;;12.02;49.79
43488;BME280;29078;41.932;25.554;2022-11-04T01:01:59;99764.16;;;12.39;49.88
43488;BME280;29078;41.932;25.554;2022-11-04T01:04:24;99804.88;;;12.68;50.15
43488;BME280;29078;41.932;25.554;2022-11-04T01:06:50;99802.66;;;12.57;49.99
43488;BME280;29078;41.932;25.554;2022-11-04T01:09:15;99752.84;;;12.31;49.69
43488;BME280;29078;41.932;25.554;2022-11-04T01:11:40;99702.00;;;12.06;49.65
43488;BME280;29078;41.932;25.554;2022-11-04T01:14:06;99668.97;;;11.87;49.53
43488;BME280;29078;41.932;25.554;2022-11-04T01:16:31;99835.19;;;12.80;50.19
43488;BME280;29078;41.932;25.554;2022-11-04T01:18:57;99677.44;;;11.83;50.09
43488;BME280;29078;41.932;25.554;2022-11-04T01:21:23;99819.75;;;12.69;49.81
43488;BME280;29078;41.932;25.554;2022-11-04T01:23:49;99819.31;;;12.65;49.77
43488;BME280;29078;41.932;25.554;2022-11-04T01:26:16;99823.66;;;12.88;49.96
43488;BME280;29078;41.932;25.554;2022-11-04T01:28:43;99627.44;;;11.73;50.04
43488;BME280;29078;41.932;25.554;2022-11-04T01:31:13;99721.88;;;12.31;49.66
43488;BME280;29078;41.932;25.554;2022-11-04T01:33:39;99806.38;;;12.92;49.49
43488;BME280;29078;41.932;25.554;2022-11-04T01:36:06;99785.22;;;12.77;49.96
43488;BME280;29078;41.932;25.554;2022-11-04T01:38:32;99675.38;;;12.07;49.59
43488;BME280;29078;41.932;25.554;2022-11-04T01:40:57;99700.44;;;12.12;49.38
43488;BME280;29078;41.932;25.554;2022-11-04T01:43:42;99812.41;;;12.86;50.04
43488;BME280;29078;41.932;25.554;2022-11-04T01:46:10;99762.84;;;12.50;49.77
43488;BME280;29078;41.932;25.554;2022-11-04T01:48:36;99778.44;;;12.60;49.89
43488;BME280;29078;41.932;25.554;2022-11-04T01:51:02;99826.31;;;12.73;50.22
43488;BME280;29078;41.932;25.554;2022-11-04T01:53:34;99805.50;;;12.70;50.36
43488;BME280;29078;41.932;25.554;2022-11-04T01:56:04;99816.03;;;12.63;50.32
43488;BME280;29078;41.932;25.554;2022-11-04T01:58:39;99730.03;;;12.00;50.43
43488;BME280;29078;41.932;25.554;2022-11-04T02:01:06;99810.16;;;12.53;50.79
43488;BME280;29078;41.932;25.554;2022-11-04T02:03:39;99812.34;;;12.50;50.87
43488;BME280;29078;41.932;25.554;2022-11-04T02:06:09;99758.22;;;12.08;50.93
43488;BME280;29078;41.932;25.554;2022-11-04T02:08:37;99656.78;;;11.49;51.20
43488;BME280;29078;41.932;25.554;2022-11-04T02:11:03;99777.47;;;12.17;51.37
43488;BME280;29078;41.932;25.554;2022-11-04T02:13:33;99789.53;;;12.04;51.29
43488;BME280;29078;41.932;25.554;2022-11-04T02:27:20;99798.75;;;12.23;51.48
43488;BME280;29078;41.932;25.554;2022-11-04T02:32:33;99803.13;;;12.31;50.63
43488;BME280;29078;41.932;25.554;2022-11-04T02:35:09;99797.56;;;12.26;51.21
43488;BME280;29078;41.932;25.554;2022-11-04T02:38:05;99720.09;;;11.65;51.35
43488;BME280;29078;41.932;25.554;2022-11-04T02:40:41;99797.75;;;12.09;51.19
43488;BME280;29078;41.932;25.554;2022-11-04T02:43:32;99689.47;;;11.18;51.36
43488;BME280;29078;41.932;25.554;2022-11-04T02:46:04;99510.44;;;10.22;51.45
43488;BME280;29078;41.932;25.554;2022-11-04T02:48:35;99808.22;;;12.03;51.27
43488;BME280;29078;41.932;25.554;2022-11-04T02:51:20;99797.66;;;12.03;51.72
43488;BME280;29078;41.932;25.554;2022-11-04T02:53:52;99755.53;;;11.78;51.98
43488;BME280;29078;41.932;25.554;2022-11-04T02:56:23;99673.00;;;11.31;51.44
43488;BME280;29078;41.932;25.554;2022-11-04T02:58:59;99679.31;;;11.44;52.04
43488;BME280;29078;41.932;25.554;2022-11-04T03:01:33;99713.63;;;11.67;51.72
43488;BME280;29078;41.932;25.554;2022-11-04T03:04:05;99754.28;;;11.89;51.47
43488;BME280;29078;41.932;25.554;2022-11-04T03:06:33;99786.69;;;12.21;52.07
43488;BME280;29078;41.932;25.554;2022-11-04T03:09:00;99732.28;;;11.89;51.53
43488;BME280;29078;41.932;25.554;2022-11-04T03:11:27;99705.78;;;11.74;51.59
43488;BME280;29078;41.932;25.554;2022-11-04T03:14:17;99762.16;;;12.12;51.47
43488;BME280;29078;41.932;25.554;2022-11-04T03:16:46;99680.34;;;11.73;51.15
43488;BME280;29078;41.932;25.554;2022-11-04T03:21:48;99797.09;;;12.37;51.19
43488;BME280;29078;41.932;25.554;2022-11-04T03:24:16;99779.22;;;12.39;51.00
43488;BME280;29078;41.932;25.554;2022-11-04T03:26:58;99767.97;;;12.37;51.20
43488;BME280;29078;41.932;25.554;2022-11-04T03:32:14;99767.16;;;12.36;51.17
43488;BME280;29078;41.932;25.554;2022-11-04T03:34:41;99794.47;;;12.37;51.01
43488;BME280;29078;41.932;25.554;2022-11-04T03:37:07;99729.13;;;12.08;51.23
43488;BME280;29078;41.932;25.554;2022-11-04T03:39:33;99716.16;;;11.98;50.87
43488;BME280;29078;41.932;25.554;2022-11-04T03:42:02;99693.09;;;11.69;51.11
43488;BME280;29078;41.932;25.554;2022-11-04T03:45:05;99728.81;;;11.88;51.50
43488;BME280;29078;41.932;25.554;2022-11-04T03:47:30;99639.19;;;11.26;51.24
43488;BME280;29078;41.932;25.554;2022-11-04T03:52:34;99728.47;;;11.54;51.82
43488;BME280;29078;41.932;25.554;2022-11-04T03:55:00;99693.53;;;11.43;52.22
43488;BME280;29078;41.932;25.554;2022-11-04T03:57:53;99775.84;;;12.01;52.76
43488;BME280;29078;41.932;25.554;2022-11-04T04:00:21;99780.94;;;12.02;52.35
43488;BME280;29078;41.932;25.554;2022-11-04T04:03:14;99647.53;;;11.15;52.15
43488;BME280;29078;41.932;25.554;2022-11-04T04:05:59;99730.03;;;11.63;52.21
43488;BME280;29078;41.932;25.554;2022-11-04T04:13:41;99778.53;;;11.78;52.88
43488;BME280;29078;41.932;25.554;2022-11-04T04:16:33;99777.38;;;11.72;53.22
43488;BME280;29078;41.932;25.554;2022-11-04T04:19:19;99778.75;;;11.68;52.82
43488;BME280;29078;41.932;25.554;2022-11-04T04:24:22;99663.56;;;10.91;52.59
43488;BME280;29078;41.932;25.554;2022-11-04T04:27:09;99718.88;;;11.38;52.27
43488;BME280;29078;41.932;25.554;2022-11-04T04:29:54;99698.22;;;11.19;52.96
43488;BME280;29078;41.932;25.554;2022-11-04T04:32:21;99747.03;;;11.45;53.23
43488;BME280;29078;41.932;25.554;2022-11-04T04:34:48;99715.25;;;11.16;53.04
43488;BME280;29078;41.932;25.554;2022-11-04T04:37:24;99782.28;;;11.61;53.20
43488;BME280;29078;41.932;25.554;2022-11-04T04:39:57;99797.50;;;11.59;53.74
43488;BME280;29078;41.932;25.554;2022-11-04T04:42:42;99649.72;;;10.66;53.58
43488;BME280;29078;41.932;25.554;2022-11-04T04:45:48;99713.41;;;10.94;54.01
43488;BME280;29078;41.932;25.554;2022-11-04T04:48:15;99798.69;;;11.33;54.06
43488;BME280;29078;41.932;25.554;2022-11-04T04:50:48;99697.44;;;10.87;54.17
43488;BME280;29078;41.932;25.554;2022-11-04T04:53:15;99729.31;;;11.08;54.48
43488;BME280;29078;41.932;25.554;2022-11-04T04:55:40;99622.97;;;10.46;53.94
43488;BME280;29078;41.932;25.554;2022-11-04T04:58:06;99706.41;;;10.78;54.11
43488;BME280;29078;41.932;25.554;2022-11-04T05:00:32;99784.34;;;11.51;54.12
43488;BME280;29078;41.932;25.554;2022-11-04T05:02:58;99757.25;;;11.03;54.01
43488;BME280;29078;41.932;25.554;2022-11-04T05:05:23;99699.25;;;10.87;54.29
43488;BME280;29078;41.932;25.554;2022-11-04T05:07:49;99786.00;;;11.29;54.01
43488;BME280;29078;41.932;25.554;2022-11-04T05:10:15;99785.84;;;11.30;54.32
43488;BME280;29078;41.932;25.554;2022-11-04T05:12:41;99752.63;;;11.05;54.03
43488;BME280;29078;41.932;25.554;2022-11-04T05:15:26;99670.84;;;10.66;54.07
43488;BME280;29078;41.932;25.554;2022-11-04T05:17:57;99776.34;;;11.13;53.83
43488;BME280;29078;41.932;25.554;2022-11-04T05:20:23;99689.94;;;10.76;53.81
43488;BME280;29078;41.932;25.554;2022-11-04T05:22:48;99712.81;;;10.83;54.02
43488;BME280;29078;41.932;25.554;2022-11-04T05:25:14;99810.22;;;11.40;54.00
43488;BME280;29078;41.932;25.554;2022-11-04T05:27:40;99802.28;;;11.40;53.65
43488;BME280;29078;41.932;25.554;2022-11-04T05:30:06;99823.91;;;11.44;53.90
43488;BME280;29078;41.932;25.554;2022-11-04T05:32:31;99776.78;;;11.25;53.72
43488;BME280;29078;41.932;25.554;2022-11-04T05:34:57;99656.63;;;10.44;54.33
43488;BME280;29078;41.932;25.554;2022-11-04T05:37:22;99734.25;;;10.89;54.13
43488;BME280;29078;41.932;25.554;2022-11-04T05:39:48;99827.53;;;11.43;53.54
43488;BME280;29078;41.932;25.554;2022-11-04T05:42:13;99688.03;;;10.62;53.91
43488;BME280;29078;41.932;25.554;2022-11-04T05:44:39;99660.69;;;10.55;53.88
43488;BME280;29078;41.932;25.554;2022-11-04T05:47:04;99626.28;;;10.40;53.78
43488;BME280;29078;41.932;25.554;2022-11-04T05:49:30;99754.81;;;11.24;53.81
43488;BME280;29078;41.932;25.554;2022-11-04T05:51:55;99726.84;;;11.07;53.89
43488;BME280;29078;41.932;25.554;2022-11-04T05:54:21;99746.91;;;11.24;53.89
43488;BME280;29078;41.932;25.554;2022-11-04T05:56:46;99716.91;;;11.09;54.08
43488;BME280;29078;41.932;25.554;2022-11-04T05:59:12;99781.34;;;11.54;54.19
43488;BME280;29078;41.932;25.554;2022-11-04T06:01:39;99820.34;;;11.74;54.65
43488;BME280;29078;41.932;25.554;2022-11-04T06:04:12;99750.06;;;11.20;54.17
43488;BME280;29078;41.932;25.554;2022-11-04T06:06:38;99714.75;;;10.90;54.49
43488;BME280;29078;41.932;25.554;2022-11-04T06:09:04;99706.59;;;10.76;54.70
43488;BME280;29078;41.932;25.554;2022-11-04T06:11:31;99830.53;;;11.63;54.83
43488;BME280;29078;41.932;25.554;2022-11-04T06:13:57;99835.63;;;11.64;54.68
43488;BME280;29078;41.932;25.554;2022-11-04T06:16:23;99844.88;;;11.68;54.67
43488;BME280;29078;41.932;25.554;2022-11-04T06:18:49;99809.44;;;11.55;55.13
43488;BME280;29078;41.932;25.554;2022-11-04T06:23:43;99766.50;;;11.30;54.29
43488;BME280;29078;41.932;25.554;2022-11-04T06:26:10;99841.59;;;11.89;54.66
43488;BME280;29078;41.932;25.554;2022-11-04T06:28:36;99842.91;;;11.93;54.09
43488;BME280;29078;41.932;25.554;2022-11-04T06:31:05;99807.13;;;11.74;54.40
43488;BME280;29078;41.932;25.554;2022-11-04T06:33:31;99842.72;;;11.95;54.47
43488;BME280;29078;41.932;25.554;2022-11-04T06:36:02;99684.00;;;10.97;53.89
43488;BME280;29078;41.932;25.554;2022-11-04T06:38:29;99810.09;;;11.80;54.02
43488;BME280;29078;41.932;25.554;2022-11-04T06:40:55;99773.00;;;11.65;53.68
43488;BME280;29078;41.932;25.554;2022-11-04T06:43:21;99836.81;;;12.07;53.88
43488;BME280;29078;41.932;25.554;2022-11-04T06:45:57;99850.97;;;12.29;54.53
43488;BME280;29078;41.932;25.554;2022-11-04T06:48:23;99855.91;;;12.47;54.04
43488;BME280;29078;41.932;25.554;2022-11-04T06:50:49;99791.16;;;12.05;54.68
43488;BME280;29078;41.932;25.554;2022-11-04T06:53:14;99810.78;;;12.11;54.41
43488;BME280;29078;41.932;25.554;2022-11-04T06:55:40;99753.75;;;11.94;54.53
43488;BME280;29078;41.932;25.554;2022-11-04T06:58:05;99789.53;;;12.34;54.60
43488;BME280;29078;41.932;25.554;2022-11-04T07:00:30;99741.63;;;12.14;54.27
43488;BME280;29078;41.932;25.554;2022-11-04T07:02:56;99753.47;;;12.18;54.33
43488;BME280;29078;41.932;25.554;2022-11-04T07:05:21;99700.09;;;12.00;54.81
43488;BME280;29078;41.932;25.554;2022-11-04T07:07:47;99762.94;;;12.42;54.91
43488;BME280;29078;41.932;25.554;2022-11-04T07:10:12;99712.84;;;12.26;55.20
43488;BME280;29078;41.932;25.554;2022-11-04T07:12:38;99803.56;;;12.79;55.67
43488;BME280;29078;41.932;25.554;2022-11-04T07:15:03;99704.81;;;12.34;55.93
43488;BME280;29078;41.932;25.554;2022-11-04T07:17:29;99797.75;;;13.04;56.40
43488;BME280;29078;41.932;25.554;2022-11-04T07:19:54;99757.53;;;12.80;56.61
43488;BME280;29078;41.932;25.554;2022-11-04T07:22:20;99784.75;;;13.10;57.08
43488;BME280;29078;41.932;25.554;2022-11-04T07:24:45;99769.97;;;13.00;57.10
43488;BME280;29078;41.932;25.554;2022-11-04T07:27:11;99758.28;;;12.95;57.21
43488;BME280;29078;41.932;25.554;2022-11-04T07:29:36;99760.63;;;13.04;58.34
43488;BME280;29078;41.932;25.554;2022-11-04T07:32:03;99853.13;;;13.72;58.72
43488;BME280;29078;41.932;25.554;2022-11-04T07:34:28;99825.75;;;13.28;58.83
43488;BME280;29078;41.932;25.554;2022-11-04T07:36:54;99799.50;;;13.33;59.47
43488;BME280;29078;41.932;25.554;2022-11-04T07:39:19;99762.47;;;13.04;59.47
43488;BME280;29078;41.932;25.554;2022-11-04T07:41:45;99767.13;;;13.38;59.19
43488;BME280;29078;41.932;25.554;2022-11-04T07:44:11;99685.91;;;12.94;58.98
43488;BME280;29078;41.932;25.554;2022-11-04T07:46:37;99819.75;;;13.84;58.75
43488;BME280;29078;41.932;25.554;2022-11-04T07:49:02;99851.88;;;14.17;58.56
43488;BME280;29078;41.932;25.554;2022-11-04T07:51:28;99839.28;;;14.25;58.22
43488;BME280;29078;41.932;25.554;2022-11-04T07:53:56;99827.88;;;14.31;58.45
43488;BME280;29078;41.932;25.554;2022-11-04T07:56:22;99800.94;;;14.07;58.64
43488;BME280;29078;41.932;25.554;2022-11-04T07:58:48;99773.09;;;13.96;58.67
43488;BME280;29078;41.932;25.554;2022-11-04T08:01:16;99730.28;;;13.78;58.62
43488;BME280;29078;41.932;25.554;2022-11-04T08:03:42;99823.50;;;14.45;58.54
43488;BME280;29078;41.932;25.554;2022-11-04T08:06:10;99825.97;;;14.53;58.21
43488;BME280;29078;41.932;25.554;2022-11-04T08:08:35;99738.22;;;14.06;58.37
43488;BME280;29078;41.932;25.554;2022-11-04T08:11:21;99819.06;;;14.59;58.95
43488;BME280;29078;41.932;25.554;2022-11-04T08:13:48;99766.72;;;14.18;59.12
43488;BME280;29078;41.932;25.554;2022-11-04T08:16:16;99812.09;;;14.58;59.16
43488;BME280;29078;41.932;25.554;2022-11-04T08:18:43;99811.72;;;14.61;59.20
43488;BME280;29078;41.932;25.554;2022-11-04T08:21:09;99800.69;;;14.64;59.17
43488;BME280;29078;41.932;25.554;2022-11-04T08:23:35;99697.16;;;14.02;59.02
43488;BME280;29078;41.932;25.554;2022-11-04T08:26:00;99738.41;;;14.39;59.31
43488;BME280;29078;41.932;25.554;2022-11-04T08:28:27;99788.47;;;14.76;59.49
43488;BME280;29078;41.932;25.554;2022-11-04T08:33:26;99782.97;;;14.78;59.80
43488;BME280;29078;41.932;25.554;2022-11-04T08:35:53;99701.22;;;14.32;59.98
43488;BME280;29078;41.932;25.554;2022-11-04T08:38:18;99778.25;;;14.80;60.15
43488;BME280;29078;41.932;25.554;2022-11-04T08:40:44;99653.28;;;14.06;59.70
43488;BME280;29078;41.932;25.554;2022-11-04T08:43:10;99782.22;;;14.90;59.99
43488;BME280;29078;41.932;25.554;2022-11-04T08:45:40;99634.66;;;13.99;60.46
43488;BME280;29078;41.932;25.554;2022-11-04T08:48:06;99743.28;;;14.76;60.50
43488;BME280;29078;41.932;25.554;2022-11-04T08:50:32;99754.56;;;14.85;60.36
43488;BME280;29078;41.932;25.554;2022-11-04T08:52:57;99737.22;;;14.89;60.37
43488;BME280;29078;41.932;25.554;2022-11-04T08:55:22;99725.31;;;14.85;60.35
43488;BME280;29078;41.932;25.554;2022-11-04T08:57:48;99716.88;;;14.68;60.67
43488;BME280;29078;41.932;25.554;2022-11-04T09:00:13;99732.94;;;14.94;60.80
43488;BME280;29078;41.932;25.554;2022-11-04T09:02:40;99707.91;;;14.76;60.58
43488;BME280;29078;41.932;25.554;2022-11-04T09:05:06;99664.75;;;14.67;60.91
43488;BME280;29078;41.932;25.554;2022-11-04T09:07:32;99737.25;;;15.22;60.88
43488;BME280;29078;41.932;25.554;2022-11-04T09:09:59;99727.03;;;15.19;60.40
43488;BME280;29078;41.932;25.554;2022-11-04T09:12:26;99661.50;;;14.78;60.56
43488;BME280;29078;41.932;25.554;2022-11-04T09:14:52;99705.16;;;15.23;60.47
43488;BME280;29078;41.932;25.554;2022-11-04T09:17:17;99726.00;;;15.46;60.24
43488;BME280;29078;41.932;25.554;2022-11-04T09:19:43;99536.34;;;14.34;60.36
43488;BME280;29078;41.932;25.554;2022-11-04T09:22:08;99651.53;;;15.13;60.46
43488;BME280;29078;41.932;25.554;2022-11-04T09:24:33;99649.91;;;15.12;60.08
43488;BME280;29078;41.932;25.554;2022-11-04T09:26:59;99601.63;;;14.96;59.90
43488;BME280;29078;41.932;25.554;2022-11-04T09:29:24;99630.25;;;15.07;60.07
43488;BME280;29078;41.932;25.554;2022-11-04T09:31:50;99604.50;;;15.07;59.85
43488;BME280;29078;41.932;25.554;2022-11-04T09:34:16;99709.47;;;15.77;60.06
43488;BME280;29078;41.932;25.554;2022-11-04T09:36:42;99649.88;;;15.45;59.50
43488;BME280;29078;41.932;25.554;2022-11-04T09:39:09;99630.63;;;15.50;59.41
43488;BME280;29078;41.932;25.554;2022-11-04T09:46:58;99681.22;;;16.34;58.30
43488;BME280;29078;41.932;25.554;2022-11-04T09:49:28;99651.00;;;16.09;58.15
43488;BME280;29078;41.932;25.554;2022-11-04T09:51:57;99559.63;;;15.64;57.97
43488;BME280;29078;41.932;25.554;2022-11-04T09:54:27;99463.38;;;14.96;57.90
43488;BME280;29078;41.932;25.554;2022-11-04T09:56:56;99648.84;;;16.31;59.01
43488;BME280;29078;41.932;25.554;2022-11-04T09:59:31;99552.22;;;15.59;57.79
43488;BME280;29078;41.932;25.554;2022-11-04T10:10:18;99616.50;;;16.65;57.24
43488;BME280;29078;41.932;25.554;2022-11-04T10:13:13;99620.78;;;16.73;57.35
43488;BME280;29078;41.932;25.554;2022-11-04T10:16:00;99557.00;;;16.33;57.11
43488;BME280;29078;41.932;25.554;2022-11-04T10:27:10;99575.44;;;17.23;55.70
43488;BME280;29078;41.932;25.554;2022-11-04T10:29:38;99573.69;;;17.35;55.55
43488;BME280;29078;41.932;25.554;2022-11-04T10:32:16;99569.69;;;17.44;55.31
43488;BME280;29078;41.932;25.554;2022-11-04T10:35:01;99519.78;;;17.26;55.49
43488;BME280;29078;41.932;25.554;2022-11-04T10:37:28;99460.00;;;16.91;54.93
43488;BME280;29078;41.932;25.554;2022-11-04T10:42:39;99553.63;;;17.69;54.73
43488;BME280;29078;41.932;25.554;2022-11-04T10:45:10;99429.25;;;16.88;54.69
43488;BME280;29078;41.932;25.554;2022-11-04T10:47:56;99511.84;;;17.38;54.66
43488;BME280;29078;41.932;25.554;2022-11-04T10:50:29;99463.81;;;17.20;54.79
43488;BME280;29078;41.932;25.554;2022-11-04T10:53:14;99530.00;;;17.66;54.80
43488;BME280;29078;41.932;25.554;2022-11-04T10:56:15;99528.75;;;17.68;54.81
43488;BME280;29078;41.932;25.554;2022-11-04T10:58:45;99497.31;;;17.52;54.76
43488;BME280;29078;41.932;25.554;2022-11-04T11:01:26;99470.09;;;17.43;54.74
43488;BME280;29078;41.932;25.554;2022-11-04T11:03:53;99517.03;;;17.69;54.42
43488;BME280;29078;41.932;25.554;2022-11-04T11:08:52;99518.69;;;17.70;54.38
43488;BME280;29078;41.932;25.554;2022-11-04T11:11:35;99445.44;;;17.30;54.41
43488;BME280;29078;41.932;25.554;2022-11-04T11:14:01;99453.88;;;17.27;54.43
43488;BME280;29078;41.932;25.554;2022-11-04T11:16:27;99475.94;;;17.52;54.49
43488;BME280;29078;41.932;25.554;2022-11-04T11:21:47;99489.81;;;17.61;54.61
43488;BME280;29078;41.932;25.554;2022-11-04T11:24:18;99411.84;;;17.04;54.90
43488;BME280;29078;41.932;25.554;2022-11-04T11:26:44;99490.25;;;17.58;55.08
43488;BME280;29078;41.932;25.554;2022-11-04T11:29:20;99421.22;;;17.13;54.80
43488;BME280;29078;41.932;25.554;2022-11-04T11:31:46;99467.63;;;17.60;54.86
43488;BME280;29078;41.932;25.554;2022-11-04T11:34:18;99343.13;;;16.88;54.68
43488;BME280;29078;41.932;25.554;2022-11-04T11:36:45;99400.22;;;17.17;54.71
43488;BME280;29078;41.932;25.554;2022-11-04T11:46:53;99319.84;;;16.95;54.62
43488;BME280;29078;41.932;25.554;2022-11-04T11:49:34;99336.34;;;17.03;54.64
43488;BME280;29078;41.932;25.554;2022-11-04T11:52:29;99442.44;;;17.56;54.67
43488;BME280;29078;41.932;25.554;2022-11-04T11:55:13;99424.09;;;17.60;54.69
43488;BME280;29078;41.932;25.554;2022-11-04T12:00:11;99418.84;;;17.71;54.64
43488;BME280;29078;41.932;25.554;2022-11-04T12:06:10;99421.03;;;17.74;54.50
43488;BME280;29078;41.932;25.554;2022-11-04T12:13:51;99314.72;;;17.11;54.18
43488;BME280;29078;41.932;25.554;2022-11-04T12:16:35;99355.19;;;17.38;54.21
43488;BME280;29078;41.932;25.554;2022-11-04T12:22:07;99384.94;;;17.72;54.14
43488;BME280;29078;41.932;25.554;2022-11-04T12:27:15;99396.88;;;17.99;53.78
43488;BME280;29078;41.932;25.554;2022-11-04T12:30:11;99392.09;;;18.01;53.87
43488;BME280;29078;41.932;25.554;2022-11-04T12:40:42;99388.66;;;18.24;53.19
43488;BME280;29078;41.932;25.554;2022-11-04T12:43:44;99384.13;;;18.25;53.26
43488;BME280;29078;41.932;25.554;2022-11-04T12:46:36;99281.22;;;17.57;53.30
43488;BME280;29078;41.932;25.554;2022-11-04T12:52:22;99367.63;;;18.28;53.27
43488;BME280;29078;41.932;25.554;2022-11-04T12:57:56;99317.78;;;17.98;53.12
43488;BME280;29078;41.932;25.554;2022-11-04T13:00:24;99286.59;;;17.81;53.21
43488;BME280;29078;41.932;25.554;2022-11-04T13:06:03;99334.28;;;18.07;53.20
43488;BME280;29078;41.932;25.554;2022-11-04T13:08:36;99333.09;;;18.15;53.10
43488;BME280;29078;41.932;25.554;2022-11-04T13:16:17;99316.16;;;17.97;53.17
43488;BME280;29078;41.932;25.554;2022-11-04T13:18:42;99354.59;;;18.20;53.32
43488;BME280;29078;41.932;25.554;2022-11-04T13:21:16;99285.72;;;17.87;53.21
43488;BME280;29078;41.932;25.554;2022-11-04T13:23:57;99345.78;;;18.31;53.00
43488;BME280;29078;41.932;25.554;2022-11-04T13:26:25;99334.03;;;18.20;53.36
43488;BME280;29078;41.932;25.554;2022-11-04T13:29:08;99331.59;;;18.19;52.90
43488;BME280;29078;41.932;25.554;2022-11-04T13:32:00;99302.78;;;17.97;53.06
43488;BME280;29078;41.932;25.554;2022-11-04T13:37:23;99246.97;;;17.66;53.10
43488;BME280;29078;41.932;25.554;2022-11-04T13:39:56;99287.56;;;17.86;53.12
43488;BME280;29078;41.932;25.554;2022-11-04T13:45:16;99251.53;;;17.77;53.08
43488;BME280;29078;41.932;25.554;2022-11-04T13:47:47;99266.88;;;17.82;53.15
43488;BME280;29078;41.932;25.554;2022-11-04T13:50:37;99327.75;;;18.26;53.35
43488;BME280;29078;41.932;25.554;2022-11-04T13:53:05;99187.19;;;17.43;52.85
43488;BME280;29078;41.932;25.554;2022-11-04T13:55:31;99326.47;;;18.29;53.03
43488;BME280;29078;41.932;25.554;2022-11-04T13:57:59;99315.22;;;18.15;53.20
43488;BME280;29078;41.932;25.554;2022-11-04T14:00:28;99253.28;;;17.71;53.42
43488;BME280;29078;41.932;25.554;2022-11-04T14:16:10;99295.41;;;17.69;54.14
43488;BME280;29078;41.932;25.554;2022-11-04T14:18:40;99309.25;;;17.78;53.96
43488;BME280;29078;41.932;25.554;2022-11-04T14:21:22;99347.13;;;17.87;53.92
43488;BME280;29078;41.932;25.554;2022-11-04T14:23:52;99323.41;;;17.78;54.36
43488;BME280;29078;41.932;25.554;2022-11-04T14:26:22;99339.31;;;17.73;54.39
43488;BME280;29078;41.932;25.554;2022-11-04T14:29:00;99349.19;;;17.73;54.17
43488;BME280;29078;41.932;25.554;2022-11-04T14:31:38;99234.81;;;17.17;54.46
43488;BME280;29078;41.932;25.554;2022-11-04T14:34:05;99303.03;;;17.54;54.52
43488;BME280;29078;41.932;25.554;2022-11-04T14:36:38;99294.53;;;17.45;55.01
43488;BME280;29078;41.932;25.554;2022-11-04T14:44:37;99305.47;;;17.56;54.59
43488;BME280;29078;41.932;25.554;2022-11-04T14:47:27;99296.75;;;17.48;54.93
43488;BME280;29078;41.932;25.554;2022-11-04T14:52:28;99248.31;;;17.03;55.23
43488;BME280;29078;41.932;25.554;2022-11-04T14:55:05;99303.22;;;17.41;55.09
43488;BME280;29078;41.932;25.554;2022-11-04T14:57:37;99241.78;;;16.88;55.39
43488;BME280;29078;41.932;25.554;2022-11-04T15:00:36;99317.94;;;17.32;55.19
43488;BME280;29078;41.932;25.554;2022-11-04T15:05:36;99312.78;;;17.19;55.33
43488;BME280;29078;41.932;25.554;2022-11-04T15:10:49;99263.78;;;16.83;55.61
43488;BME280;29078;41.932;25.554;2022-11-04T15:13:18;99314.28;;;17.14;55.80
43488;BME280;29078;41.932;25.554;2022-11-04T15:15:45;99314.28;;;17.14;55.65
43488;BME280;29078;41.932;25.554;2022-11-04T15:18:17;99246.16;;;16.64;55.95
43488;BME280;29078;41.932;25.554;2022-11-04T15:20:55;99318.84;;;17.07;55.85
43488;BME280;29078;41.932;25.554;2022-11-04T15:23:34;99291.84;;;16.86;56.10
43488;BME280;29078;41.932;25.554;2022-11-04T15:26:01;99207.00;;;16.28;55.96
43488;BME280;29078;41.932;25.554;2022-11-04T15:28:31;99227.44;;;16.34;55.99
43488;BME280;29078;41.932;25.554;2022-11-04T15:31:04;99310.56;;;16.97;56.35
43488;BME280;29078;41.932;25.554;2022-11-04T15:33:37;99311.25;;;16.93;56.48